KFSD/FSD METAR and TAF weather

Enter ICAO airport designator
Station Type Date Time Source
KFSD METAR 2020/07/14 16:56 UTC NOAA

KFSD 141656Z 36015G22KT 10SM OVC044 20/13 A2999 RMK AO2 RAB36E47 SLP146 P0000 T02000133


Station Type Date Time Source
KFSD Decoded METAR 2020/07/14 16:56 UTC NOAA

SIOUX FALLS FOSS FIELD, SD, United States (KFSD) 43-35N 096-45W 434M
Jul 14, 2020 - 12:56 PM EDT / 2020.07.14 1656 UTC
Wind: from the N (360 degrees) at 17 MPH (15 KT) gusting to 25 MPH (22 KT):0
Visibility: 10 mile(s):0
Sky conditions: overcast
Precipitation last hour: A trace
Temperature: 68.0 F (20.0 C)
Dew Point: 55.9 F (13.3 C)
Relative Humidity: 65%
Pressure (altimeter): 29.99 in. Hg (1015 hPa)
ob: KFSD 141656Z 36015G22KT 10SM OVC044 20/13 A2999 RMK AO2 RAB36E47 SLP146 P0000 T02000133
cycle: 17

Station Type Date Time Source
KFSD TAF 2020/07/14 18:22 UTC NOAA

TAF KFSD 141720Z 1418/1518 01012G18KT P6SM OVC045
FM142200 01007KT P6SM BKN060

Example: see airport list